createdAt,value
2018-12-08T00:01:25.442Z,100152.98
2018-12-08T00:03:54.916Z,100155.09
2018-12-08T00:06:26.347Z,100153.77
2018-12-08T00:08:54.687Z,100143.44
2018-12-08T00:14:24.119Z,100148.94
2018-12-08T00:16:52.912Z,100139.06
2018-12-08T00:19:23.259Z,100146.58
2018-12-08T00:21:54.924Z,100149.42
2018-12-08T00:24:23.990Z,100161.18
2018-12-08T00:26:54.163Z,100159.20
2018-12-08T00:29:23.151Z,100170.17
2018-12-08T00:31:54.422Z,100164.67
2018-12-08T00:37:32.622Z,100161.30
2018-12-08T00:40:00.823Z,100155.67
2018-12-08T00:42:29.496Z,100168.01
2018-12-08T00:45:00.484Z,100162.98
2018-12-08T00:47:31.728Z,100161.72
2018-12-08T00:50:01.219Z,100159.55
2018-12-08T00:52:30.545Z,100171.73
2018-12-08T00:54:58.930Z,100162.31
2018-12-08T00:57:27.411Z,100160.07
2018-12-08T00:59:58.335Z,100171.24
2018-12-08T01:03:29.750Z,100175.02
2018-12-08T01:05:58.709Z,100179.14
2018-12-08T01:08:27.870Z,100187.94
2018-12-08T01:10:57.115Z,100180.53
2018-12-08T01:13:30.924Z,100188.20
2018-12-08T01:16:01.724Z,100188.98
2018-12-08T01:18:30.954Z,100177.59
2018-12-08T01:21:02.311Z,100168.66
2018-12-08T01:23:32.866Z,100170.47
2018-12-08T01:26:02.770Z,100178.14
2018-12-08T01:34:40.143Z,100181.70
2018-12-08T01:37:09.177Z,100185.68
2018-12-08T01:42:30.138Z,100191.05
2018-12-08T01:47:52.608Z,100191.69
2018-12-08T01:50:21.554Z,100192.79
2018-12-08T01:52:50.066Z,100189.04
2018-12-08T01:55:19.774Z,100181.76
2018-12-08T01:57:50.312Z,100183.22
2018-12-08T02:06:03.142Z,100169.27
2018-12-08T02:08:32.665Z,100177.84
2018-12-08T02:11:03.366Z,100175.84
2018-12-08T02:13:31.950Z,100182.60
2018-12-08T02:16:00.776Z,100182.73
2018-12-08T02:18:29.096Z,100136.70
2018-12-08T02:23:41.614Z,100168.01
2018-12-08T02:26:09.832Z,100171.25
2018-12-08T02:28:38.322Z,100155.70
2018-12-08T02:31:07.350Z,100156.91
2018-12-08T02:33:36.007Z,100158.72
2018-12-08T02:36:04.980Z,100167.52
2018-12-08T02:38:33.530Z,100155.22
2018-12-08T02:41:02.441Z,100147.97
2018-12-08T02:43:30.775Z,100149.49
2018-12-08T02:45:59.742Z,100148.45
2018-12-08T02:48:28.068Z,100147.25
2018-12-08T02:50:57.888Z,100152.30
2018-12-08T02:53:28.816Z,100150.55
2018-12-08T02:55:59.726Z,100154.59
2018-12-08T02:58:28.321Z,100156.63
2018-12-08T03:00:57.011Z,100144.73
2018-12-08T03:03:26.460Z,100153.69
2018-12-08T03:05:57.737Z,100118.31
2018-12-08T03:08:27.351Z,100142.64
2018-12-08T03:10:56.218Z,100148.11
2018-12-08T03:13:25.413Z,100136.07
2018-12-08T03:15:54.436Z,100131.25
2018-12-08T03:18:22.827Z,100121.41
2018-12-08T03:20:51.239Z,100126.39
2018-12-08T03:23:19.453Z,100072.53
2018-12-08T03:25:48.725Z,100105.17
2018-12-08T03:28:18.843Z,100112.33
2018-12-08T03:30:48.889Z,100105.01
2018-12-08T03:33:17.112Z,100103.55
2018-12-08T03:35:45.787Z,100096.69
2018-12-08T03:38:14.403Z,100101.67
2018-12-08T03:40:42.663Z,100101.81
2018-12-08T03:43:10.905Z,100107.12
2018-12-08T03:45:39.694Z,100095.27
2018-12-08T03:48:07.892Z,100104.36
2018-12-08T03:50:36.128Z,100094.56
2018-12-08T03:53:05.091Z,100105.11
2018-12-08T03:55:33.208Z,100099.17
2018-12-08T03:58:01.474Z,100088.50
2018-12-08T04:00:30.125Z,100097.93
2018-12-08T04:02:59.670Z,100100.31
2018-12-08T04:05:28.704Z,100096.91
2018-12-08T04:07:57.467Z,100091.50
2018-12-08T04:10:26.307Z,100084.02
2018-12-08T04:12:55.186Z,100076.45
2018-12-08T04:15:25.215Z,100085.39
2018-12-08T04:17:55.221Z,100083.67
2018-12-08T04:20:28.022Z,100072.51
2018-12-08T04:22:56.789Z,100086.80
2018-12-08T04:25:26.044Z,100088.98
2018-12-08T04:27:56.223Z,100079.55
2018-12-08T04:30:24.753Z,100080.08
2018-12-08T04:32:54.136Z,100073.00
2018-12-08T04:35:26.555Z,100080.53
2018-12-08T04:37:56.297Z,100071.13
2018-12-08T04:40:25.034Z,100065.09
2018-12-08T04:42:53.320Z,100058.55
2018-12-08T04:45:24.119Z,100063.81
2018-12-08T04:47:52.511Z,100059.12
2018-12-08T04:50:21.255Z,100059.66
2018-12-08T04:52:51.282Z,100060.44
2018-12-08T04:55:20.696Z,100074.72
2018-12-08T04:57:49.218Z,100073.21
2018-12-08T05:00:18.304Z,100065.33
2018-12-08T05:02:46.875Z,100073.97
2018-12-08T05:05:15.102Z,100051.34
2018-12-08T05:07:44.271Z,100063.92
2018-12-08T05:10:14.993Z,100064.63
2018-12-08T05:12:48.428Z,100052.33
2018-12-08T05:15:18.367Z,100050.50
2018-12-08T05:17:51.159Z,100060.95
2018-12-08T05:20:20.977Z,100043.41
2018-12-08T05:22:52.188Z,100050.31
2018-12-08T05:25:21.952Z,100040.73
2018-12-08T05:27:51.833Z,100028.23
2018-12-08T05:30:21.004Z,100046.23
2018-12-08T05:32:49.741Z,100044.70
2018-12-08T05:35:18.304Z,100032.86
2018-12-08T05:37:48.413Z,100035.34
2018-12-08T05:40:17.703Z,100026.30
2018-12-08T05:42:46.948Z,100041.22
2018-12-08T05:45:16.504Z,100044.60
2018-12-08T05:47:45.465Z,100030.03
2018-12-08T05:50:17.322Z,100037.19
2018-12-08T05:52:45.646Z,100046.48
2018-12-08T05:55:15.315Z,100042.30
2018-12-08T05:57:44.301Z,100049.34
2018-12-08T06:00:19.318Z,100053.08
2018-12-08T06:02:49.626Z,99857.65
2018-12-08T06:05:20.896Z,100049.72
2018-12-08T06:08:51.222Z,100054.64
2018-12-08T06:11:20.667Z,100040.38
2018-12-08T06:13:50.182Z,100044.81
2018-12-08T06:16:19.288Z,100058.82
2018-12-08T06:18:49.182Z,100044.81
2018-12-08T06:21:18.701Z,100043.23
2018-12-08T06:23:49.416Z,100041.50
2018-12-08T06:26:21.081Z,100029.19
2018-12-08T06:28:51.795Z,100031.45
2018-12-08T06:31:21.046Z,100031.22
2018-12-08T06:33:50.694Z,100025.65
2018-12-08T06:36:21.380Z,100026.58
2018-12-08T06:38:52.774Z,100018.26
2018-12-08T06:41:23.163Z,100016.52
2018-12-08T06:43:56.145Z,100011.98
2018-12-08T06:46:25.026Z,100017.08
2018-12-08T06:48:53.718Z,100021.41
2018-12-08T06:51:25.061Z,100021.51
2018-12-08T06:53:58.190Z,100014.47
2018-12-08T06:56:30.213Z,100011.28
2018-12-08T06:59:00.585Z,100008.14
2018-12-08T07:01:30.280Z,100003.17
2018-12-08T07:03:58.673Z,100007.38
2018-12-08T07:06:29.487Z,99993.07
2018-12-08T07:08:58.024Z,99986.27
2018-12-08T07:11:27.195Z,99995.38
2018-12-08T07:14:03.313Z,100004.05
2018-12-08T07:16:32.212Z,100003.27
2018-12-08T07:19:01.363Z,99981.99
2018-12-08T07:21:30.274Z,100002.29
2018-12-08T07:23:59.939Z,100009.42
2018-12-08T07:26:29.751Z,99995.83
2018-12-08T07:28:58.550Z,99998.79
2018-12-08T07:33:16.441Z,99991.05
2018-12-08T07:35:46.613Z,100001.36
2018-12-08T07:38:15.011Z,99996.77
2018-12-08T07:40:46.047Z,100000.74
2018-12-08T07:45:33.560Z,99990.78
2018-12-08T07:48:02.353Z,99997.81
2018-12-08T07:50:31.428Z,99993.73
2018-12-08T07:53:04.371Z,99983.25
2018-12-08T07:55:33.517Z,99974.08
2018-12-08T07:58:04.206Z,99983.88
2018-12-08T08:00:32.898Z,99985.72
2018-12-08T08:03:01.359Z,99980.41
2018-12-08T08:05:30.644Z,99977.80
2018-12-08T08:07:59.114Z,99968.16
2018-12-08T08:10:27.692Z,99971.73
2018-12-08T08:13:05.503Z,99966.62
2018-12-08T08:15:44.424Z,99963.52
2018-12-08T08:18:15.222Z,99974.91
2018-12-08T08:20:43.870Z,99971.28
2018-12-08T08:23:19.669Z,99966.88
2018-12-08T08:25:51.227Z,99959.67
2018-12-08T08:30:34.610Z,99973.62
2018-12-08T08:33:12.890Z,99962.30
2018-12-08T08:35:45.434Z,99958.76
2018-12-08T08:38:21.234Z,99954.17
2018-12-08T08:40:53.340Z,99944.59
2018-12-08T08:43:26.971Z,99954.08
2018-12-08T08:45:55.462Z,99953.52
2018-12-08T08:48:23.840Z,99948.86
2018-12-08T08:50:52.323Z,99939.42
2018-12-08T08:53:21.228Z,99954.87
2018-12-08T08:55:52.282Z,99949.25
2018-12-08T08:58:31.287Z,99951.70
2018-12-08T09:01:06.692Z,99950.58
2018-12-08T09:03:39.318Z,99942.53
2018-12-08T09:06:10.187Z,99949.49
2018-12-08T09:08:41.921Z,99940.60
2018-12-08T09:11:12.448Z,99944.77
2018-12-08T09:13:43.673Z,99945.25
2018-12-08T09:16:29.598Z,99948.67
2018-12-08T09:18:59.493Z,99929.60
2018-12-08T09:21:47.133Z,99923.91
2018-12-08T09:27:16.327Z,99940.47
2018-12-08T09:31:26.136Z,99943.54
2018-12-08T09:34:03.632Z,99941.89
2018-12-08T09:36:33.830Z,99846.53
2018-12-08T09:41:15.836Z,99939.11
2018-12-08T09:43:48.453Z,99952.47
2018-12-08T09:52:08.977Z,99940.30
2018-12-08T09:54:38.563Z,99932.50
2018-12-08T09:57:14.515Z,99924.11
2018-12-08T09:59:48.589Z,99927.26
2018-12-08T10:02:18.618Z,99931.70
2018-12-08T10:04:54.248Z,99926.80
2018-12-08T10:07:28.205Z,99927.02
2018-12-08T10:10:00.601Z,99925.00
2018-12-08T10:12:35.087Z,99935.70
2018-12-08T10:15:06.787Z,99932.45
2018-12-08T10:17:42.580Z,99933.55
2018-12-08T10:20:14.216Z,99939.48
2018-12-08T10:22:44.064Z,99936.73
2018-12-08T10:25:13.512Z,99932.20
2018-12-08T10:28:59.288Z,99932.22
2018-12-08T10:31:29.423Z,99922.52
2018-12-08T10:34:00.325Z,99932.86
2018-12-08T10:36:30.472Z,99939.72
2018-12-08T10:39:00.252Z,99930.50
2018-12-08T10:41:34.439Z,99932.69
2018-12-08T10:44:11.036Z,99943.02
2018-12-08T10:46:43.171Z,99949.55
2018-12-08T10:49:17.503Z,99942.03
2018-12-08T10:51:48.124Z,99934.69
2018-12-08T10:54:21.658Z,99944.91
2018-12-08T10:56:53.827Z,99945.50
2018-12-08T10:59:24.819Z,99945.16
2018-12-08T11:02:08.149Z,99943.82
2018-12-08T11:04:42.522Z,99941.63
2018-12-08T11:07:19.580Z,99933.88
2018-12-08T11:09:53.318Z,99942.88
2018-12-08T11:12:22.512Z,99955.41
2018-12-08T11:15:00.491Z,99955.07
2018-12-08T11:17:33.167Z,99955.78
2018-12-08T11:20:05.005Z,99958.35
2018-12-08T11:22:34.850Z,99940.45
2018-12-08T11:25:09.664Z,99952.95
2018-12-08T11:27:42.312Z,99956.09
2018-12-08T11:30:44.354Z,99948.89
2018-12-08T11:33:21.488Z,99945.08
2018-12-08T11:35:56.707Z,99949.87
2018-12-08T11:38:26.701Z,99947.36
2018-12-08T11:41:01.304Z,99947.01
2018-12-08T11:43:34.757Z,99944.20
2018-12-08T11:46:05.815Z,99962.45
2018-12-08T11:48:38.248Z,99955.30
2018-12-08T11:51:13.286Z,99955.49
2018-12-08T11:53:47.091Z,99947.52
2018-12-08T11:56:16.810Z,99958.84
2018-12-08T11:58:47.427Z,99958.37
2018-12-08T12:01:20.979Z,99952.04
2018-12-08T12:03:56.927Z,99956.89
2018-12-08T12:06:29.769Z,99939.25
2018-12-08T12:09:00.678Z,99937.94
2018-12-08T12:11:34.798Z,99950.18
2018-12-08T12:14:13.970Z,99881.59
2018-12-08T12:16:44.473Z,99942.61
2018-12-08T12:19:34.545Z,99936.93
2018-12-08T12:22:04.160Z,99943.25
2018-12-08T12:24:39.227Z,99934.45
2018-12-08T12:27:12.593Z,99940.79
2018-12-08T12:29:42.406Z,99937.61
2018-12-08T12:32:15.977Z,99939.47
2018-12-08T12:34:49.067Z,99938.33
2018-12-08T12:37:17.749Z,99940.56
2018-12-08T12:39:48.728Z,99942.53
2018-12-08T12:42:17.469Z,99928.31
2018-12-08T12:44:45.771Z,99939.64
2018-12-08T12:47:15.892Z,99930.14
2018-12-08T12:49:45.278Z,99938.04
2018-12-08T12:52:13.794Z,99937.74
2018-12-08T12:54:42.666Z,99937.41
2018-12-08T12:57:16.818Z,99942.44
2018-12-08T12:59:46.851Z,99943.03
2018-12-08T13:02:16.423Z,99949.70
2018-12-08T13:04:53.059Z,99937.06
2018-12-08T13:07:22.442Z,99948.47
2018-12-08T13:09:51.121Z,99943.97
2018-12-08T13:12:22.008Z,99949.45
2018-12-08T13:14:51.987Z,99951.09
2018-12-08T13:17:21.985Z,99948.28
2018-12-08T13:19:58.603Z,99952.27
2018-12-08T13:22:29.180Z,99942.94
2018-12-08T13:25:04.602Z,99950.10
2018-12-08T13:27:42.480Z,99944.61
2018-12-08T13:30:17.463Z,99947.42
2018-12-08T13:32:48.273Z,99939.42
2018-12-08T13:35:32.425Z,99944.41
2018-12-08T13:38:08.253Z,99942.25
2018-12-08T13:40:38.429Z,99940.87
2018-12-08T13:43:16.127Z,99887.83
2018-12-08T13:46:23.200Z,99925.75
2018-12-08T13:48:59.574Z,99933.56
2018-12-08T13:51:36.760Z,99935.23
2018-12-08T13:56:48.579Z,99923.24
2018-12-08T13:59:21.269Z,99922.28
2018-12-08T14:01:50.635Z,99918.29
2018-12-08T14:04:20.880Z,99922.45
2018-12-08T14:06:52.777Z,99914.29
2018-12-08T14:09:24.998Z,99914.10
2018-12-08T14:11:58.163Z,99923.63
2018-12-08T14:14:32.827Z,99919.78
2018-12-08T14:17:03.949Z,99923.78
2018-12-08T14:19:34.279Z,99912.42
2018-12-08T14:22:13.149Z,99911.13
2018-12-08T14:24:49.764Z,99918.48
2018-12-08T14:27:24.922Z,99913.30
2018-12-08T14:29:59.314Z,99915.31
2018-12-08T14:32:29.750Z,99915.16
2018-12-08T14:38:57.412Z,99916.31
2018-12-08T14:41:39.403Z,99917.83
2018-12-08T14:46:48.224Z,99914.00
2018-12-08T14:49:36.834Z,99907.16
2018-12-08T14:52:11.645Z,99908.34
2018-12-08T14:54:53.501Z,99913.66
2018-12-08T14:57:38.644Z,99912.50
2018-12-08T15:00:40.401Z,99910.81
2018-12-08T15:03:25.025Z,99900.49
2018-12-08T15:05:57.619Z,99900.49
2018-12-08T15:08:32.790Z,99899.98
2018-12-08T15:11:17.614Z,99900.83
2018-12-08T15:14:04.620Z,99900.33
2018-12-08T15:16:44.446Z,99893.31
2018-12-08T15:19:29.233Z,99890.80
2018-12-08T15:22:06.618Z,99893.31
2018-12-08T15:24:45.799Z,99886.13
2018-12-08T15:27:17.750Z,99892.64
2018-12-08T15:29:51.037Z,99890.97
2018-12-08T15:32:21.898Z,99876.46
2018-12-08T15:37:43.110Z,99885.48
2018-12-08T15:40:15.565Z,99883.28
2018-12-08T15:42:53.086Z,99873.64
2018-12-08T15:45:35.341Z,99875.45
2018-12-08T15:48:10.824Z,99867.12
2018-12-08T15:50:46.005Z,99873.30
2018-12-08T15:53:23.190Z,99868.94
2018-12-08T15:57:04.158Z,99862.78
2018-12-08T15:59:52.689Z,99864.61
2018-12-08T16:02:30.903Z,99857.28
2018-12-08T16:07:57.591Z,99850.42
2018-12-08T16:11:07.223Z,99837.77
2018-12-08T16:13:37.735Z,99837.06
2018-12-08T16:16:10.630Z,99826.06
2018-12-08T16:19:21.474Z,99816.73
2018-12-08T16:21:57.666Z,99818.56
2018-12-08T16:24:35.755Z,99808.22
2018-12-08T16:27:13.587Z,99807.73
2018-12-08T16:29:47.486Z,99805.24
2018-12-08T16:32:19.464Z,99803.22
2018-12-08T16:34:53.961Z,99799.52
2018-12-08T16:39:58.330Z,99783.86
2018-12-08T16:42:28.851Z,99786.69
2018-12-08T16:47:37.544Z,99774.87
2018-12-08T16:50:07.716Z,99761.83
2018-12-08T16:52:42.288Z,99769.05
2018-12-08T16:55:17.846Z,99766.09
2018-12-08T16:57:51.408Z,99762.08
2018-12-08T17:00:25.016Z,99761.75
2018-12-08T17:03:02.201Z,99754.10
2018-12-08T17:05:46.339Z,99744.94
2018-12-08T17:08:17.897Z,99749.42
2018-12-08T17:10:56.419Z,99735.59
2018-12-08T17:13:28.089Z,99732.59
2018-12-08T17:15:58.592Z,99736.94
2018-12-08T17:18:30.621Z,99727.61
2018-12-08T17:21:03.410Z,99730.95
2018-12-08T17:23:35.747Z,99725.11
2018-12-08T17:26:08.546Z,99707.95
2018-12-08T17:28:39.960Z,99702.45
2018-12-08T17:31:11.219Z,99694.15
2018-12-08T17:33:40.938Z,99689.95
2018-12-08T17:36:13.356Z,99691.14
2018-12-08T17:38:42.519Z,99679.97
2018-12-08T17:41:13.545Z,99668.31
2018-12-08T17:43:50.343Z,99667.64
2018-12-08T17:46:23.211Z,99651.83
2018-12-08T17:49:10.930Z,99651.01
2018-12-08T17:51:40.730Z,99648.31
2018-12-08T17:54:10.595Z,99633.02
2018-12-08T17:56:46.532Z,99643.86
2018-12-08T17:59:16.737Z,99624.02
2018-12-08T18:04:59.718Z,99591.91
2018-12-08T18:07:35.090Z,99579.25
2018-12-08T18:10:13.679Z,99578.42
2018-12-08T18:13:06.569Z,99578.42
2018-12-08T18:15:37.309Z,99576.73
2018-12-08T18:19:21.065Z,99562.11
2018-12-08T18:22:02.795Z,99547.43
2018-12-08T18:24:38.612Z,99537.92
2018-12-08T18:27:12.713Z,99533.47
2018-12-08T18:32:37.014Z,99526.97
2018-12-08T18:37:59.877Z,99523.27
2018-12-08T18:40:32.783Z,99181.77
2018-12-08T18:43:26.183Z,99495.99
2018-12-08T18:45:56.146Z,99462.04
2018-12-08T18:48:34.029Z,99477.52
2018-12-08T18:51:07.362Z,99467.50
2018-12-08T18:53:47.012Z,99455.16
2018-12-08T18:56:16.270Z,99460.45
2018-12-08T18:58:48.442Z,99456.45
2018-12-08T19:01:17.827Z,99447.98
2018-12-08T19:03:51.476Z,99438.68
2018-12-08T19:06:22.985Z,99442.17
2018-12-08T19:08:52.268Z,99405.37
2018-12-08T19:11:21.778Z,99402.28
2018-12-08T19:13:57.874Z,99396.97
2018-12-08T19:16:29.675Z,99387.08
2018-12-08T19:18:59.298Z,99364.79
2018-12-08T19:21:41.479Z,99362.41
2018-12-08T19:24:23.485Z,99359.45
2018-12-08T19:27:04.098Z,99347.50
2018-12-08T19:29:43.719Z,99330.13
2018-12-08T19:32:13.491Z,99327.63
2018-12-08T19:34:46.992Z,99314.65
2018-12-08T19:37:18.687Z,99300.30
2018-12-08T19:42:30.558Z,99282.14
2018-12-08T19:45:00.279Z,99275.31
2018-12-08T19:50:19.259Z,99256.47
2018-12-08T19:53:08.216Z,99258.53
2018-12-08T19:55:45.413Z,99250.17
2018-12-08T19:58:18.770Z,99244.61
2018-12-08T20:01:01.571Z,99234.16
2018-12-08T20:03:40.130Z,99229.81
2018-12-08T20:06:12.011Z,99220.45
2018-12-08T20:08:43.262Z,99225.13
2018-12-08T20:11:15.168Z,99217.53
2018-12-08T20:13:45.691Z,99209.67
2018-12-08T20:16:18.110Z,99216.80
2018-12-08T20:18:48.516Z,99203.38
2018-12-08T20:21:20.266Z,99186.36
2018-12-08T20:23:55.155Z,99111.48
2018-12-08T20:26:24.780Z,99146.55
2018-12-08T20:29:10.006Z,99143.88
2018-12-08T20:31:43.511Z,99132.45
2018-12-08T20:34:15.431Z,99128.05
2018-12-08T20:36:53.862Z,99108.51
2018-12-08T20:39:34.109Z,99087.01
2018-12-08T20:42:22.126Z,99101.56
2018-12-08T20:47:51.396Z,99091.51
2018-12-08T20:53:31.584Z,99076.19
2018-12-08T20:56:07.646Z,99077.00
2018-12-08T20:58:46.208Z,99065.13
2018-12-08T21:01:19.223Z,99069.08
2018-12-08T21:09:33.457Z,99068.49
2018-12-08T21:12:06.679Z,99079.01
2018-12-08T21:16:55.134Z,99065.10
2018-12-08T21:19:25.517Z,99080.58
2018-12-08T21:21:56.918Z,99064.63
2018-12-08T21:24:30.722Z,99073.14
2018-12-08T21:27:01.132Z,99036.51
2018-12-08T21:31:53.074Z,99058.70
2018-12-08T21:34:27.147Z,99061.16
2018-12-08T21:37:00.336Z,99067.23
2018-12-08T21:39:32.793Z,99063.02
2018-12-08T21:42:07.557Z,99067.61
2018-12-08T21:44:42.006Z,99072.20
2018-12-08T21:47:13.102Z,99077.77
2018-12-08T21:49:42.676Z,99067.26
2018-12-08T21:52:13.244Z,99067.94
2018-12-08T21:54:44.555Z,99055.75
2018-12-08T21:57:13.709Z,99037.84
2018-12-08T21:59:52.519Z,99049.23
2018-12-08T22:02:32.389Z,99036.03
2018-12-08T22:05:02.815Z,99042.48
2018-12-08T22:07:46.126Z,99041.06
2018-12-08T22:10:19.669Z,99033.23
2018-12-08T22:12:51.211Z,99040.31
2018-12-08T22:15:28.766Z,99039.16
2018-12-08T22:17:59.227Z,99048.47
2018-12-08T22:23:15.520Z,99018.55
2018-12-08T22:25:45.135Z,99021.48
2018-12-08T22:28:14.824Z,99032.48
2018-12-08T22:30:44.477Z,99026.89
2018-12-08T22:33:14.354Z,99031.80
2018-12-08T22:35:45.655Z,99028.88
2018-12-08T22:38:20.463Z,99029.55
2018-12-08T22:43:39.928Z,99027.54
2018-12-08T22:46:18.220Z,99023.97
2018-12-08T22:48:51.213Z,99028.42
2018-12-08T22:51:33.813Z,99022.83
2018-12-08T22:54:20.124Z,99024.60
2018-12-08T22:56:51.368Z,99019.34
2018-12-08T22:59:23.527Z,99028.39
2018-12-08T23:01:53.343Z,99019.91
2018-12-08T23:04:26.109Z,99017.42
2018-12-08T23:07:00.907Z,99017.72
2018-12-08T23:09:30.651Z,99011.76
2018-12-08T23:12:02.398Z,99004.91
2018-12-08T23:15:05.577Z,99001.80
2018-12-08T23:17:46.621Z,99003.39
2018-12-08T23:20:19.240Z,99007.75
2018-12-08T23:22:52.970Z,99010.75
2018-12-08T23:25:21.666Z,99006.95
2018-12-08T23:27:55.182Z,98997.85
2018-12-08T23:30:24.327Z,99002.17
2018-12-08T23:32:53.257Z,98987.62
2018-12-08T23:35:43.813Z,98993.34
2018-12-08T23:38:13.591Z,98977.45
2018-12-08T23:40:44.766Z,98981.92
2018-12-08T23:43:13.921Z,98978.04
2018-12-08T23:45:45.046Z,98984.12
2018-12-08T23:48:15.638Z,98985.86
2018-12-08T23:50:50.484Z,98997.12
2018-12-08T23:53:22.137Z,98995.55
2018-12-08T23:55:54.633Z,98990.17
2018-12-08T23:58:23.257Z,98987.50
